Terminal Aerodrome Forecast
Issued by NWS Wilmington, OH

Current Version | Previous Version | Text Only | Print | Product List | Glossary Off
Versions: 1 2 3 4 5 6 7 8 9 10 11 12 13

000
FTUS41 KILN 200520
TAFDAY
TAF
KDAY 200520Z 2006/2106 34008KT P6SM SKC
     FM201100 35005KT P6SM SKC
     FM201400 02006KT P6SM SKC
     FM210200 06004KT P6SM SKC=

USA.gov is the U.S. government's official web portal to all federal, state and local government web resources and services.